Time;durP1;ratioP1;P1;durP2;ratioP2;P2;SDS_P1;SDS_P2;PMS_P1;PMS_P2;Temp;Humidity;BMP_temperature;BMP_pressure;BME280_temperature;BME280_humidity;BME280_pressure;Samples;Min_cycle;Max_cycle;Signal;HPM_P1;HPM_P2
2022/12/18 00:00:29;;;;;;;57.83;23.43;;;-2.70;93.50;;;;;;5014764;28;20034;-81
2022/12/18 00:02:55;;;;;;;58.40;24.43;;;-2.70;93.50;;;;;;5014274;28;20629;-81
2022/12/18 00:05:21;;;;;;;64.13;25.03;;;-2.70;93.50;;;;;;4997135;28;20026;-81
2022/12/18 00:07:47;;;;;;;60.83;23.80;;;-2.70;93.50;;;;;;5012912;28;20076;-81
2022/12/18 00:10:12;;;;;;;60.03;23.87;;;-2.80;93.50;;;;;;5029910;28;20030;-81
2022/12/18 00:12:38;;;;;;;60.30;23.60;;;-2.80;93.60;;;;;;5029628;28;20629;-80
2022/12/18 00:15:04;;;;;;;59.07;25.10;;;-2.80;93.60;;;;;;5029669;28;20028;-81
2022/12/18 00:17:30;;;;;;;65.03;23.90;;;-2.80;93.60;;;;;;5029645;28;20459;-80
2022/12/18 00:19:55;;;;;;;61.23;24.40;;;-2.90;93.60;;;;;;5013238;28;20369;-80
2022/12/18 00:22:21;;;;;;;60.50;25.03;;;-2.90;93.70;;;;;;5029510;28;20080;-80
2022/12/18 00:24:46;;;;;;;64.83;26.10;;;-2.90;93.70;;;;;;5029323;28;20462;-82
2022/12/18 00:27:12;;;;;;;63.00;24.37;;;-2.90;93.80;;;;;;5012954;28;20026;-82
2022/12/18 00:29:39;;;;;;;59.40;24.70;;;-2.90;93.80;;;;;;5012743;28;20076;-82
2022/12/18 00:32:04;;;;;;;52.23;22.83;;;-2.90;93.80;;;;;;5013100;28;20050;-82
2022/12/18 00:34:30;;;;;;;62.53;24.87;;;-3.00;93.80;;;;;;5029132;28;20784;-82
2022/12/18 00:36:55;;;;;;;63.17;24.23;;;-3.00;93.80;;;;;;5029137;28;20076;-82
2022/12/18 00:39:21;;;;;;;57.43;24.07;;;-3.00;93.80;;;;;;5012657;28;20156;-82
2022/12/18 00:44:31;;;;;;;58.33;23.58;;;-3.00;93.80;;;;;;5014013;28;20048;-80
2022/12/18 00:46:56;;;;;;;58.93;22.70;;;-3.10;93.80;;;;;;5028713;28;20026;-81
2022/12/18 00:49:22;;;;;;;54.10;21.37;;;-3.10;93.80;;;;;;4996370;28;20463;-81
2022/12/18 00:51:48;;;;;;;57.20;23.63;;;-3.10;93.70;;;;;;4996170;28;20053;-80
2022/12/18 00:54:14;;;;;;;59.33;24.53;;;-3.20;93.70;;;;;;5013655;28;20064;-81
2022/12/18 00:56:40;;;;;;;51.43;22.40;;;-3.20;93.80;;;;;;5028406;28;20272;-81
2022/12/18 00:59:06;;;;;;;51.00;23.23;;;-3.20;93.90;;;;;;5028944;28;20056;-81
2022/12/18 01:01:32;;;;;;;52.83;21.50;;;-3.20;93.90;;;;;;5013509;28;20537;-81
2022/12/18 01:03:59;;;;;;;52.97;22.57;;;-3.20;93.90;;;;;;5028458;28;20304;-81
2022/12/18 01:06:24;;;;;;;51.37;21.93;;;-3.30;93.90;;;;;;5013860;28;20284;-81
2022/12/18 01:08:50;;;;;;;55.93;23.13;;;-3.20;93.90;;;;;;5028649;28;20285;-80
2022/12/18 01:11:18;;;;;;;52.43;22.83;;;-3.30;93.90;;;;;;4996106;28;20451;-80
2022/12/18 01:13:44;;;;;;;49.93;22.50;;;-3.30;93.90;;;;;;5013297;28;20026;-81
2022/12/18 01:16:15;;;;;;;46.17;21.17;;;-3.30;93.80;;;;;;5013745;28;20810;-80
2022/12/18 01:18:41;;;;;;;45.33;21.37;;;-3.30;93.80;;;;;;5028558;28;20026;-81
2022/12/18 01:21:08;;;;;;;49.67;20.93;;;-3.40;93.80;;;;;;5028716;28;20273;-81
2022/12/18 01:23:35;;;;;;;46.70;20.33;;;-3.40;93.80;;;;;;5013297;28;20391;-81
2022/12/18 01:26:08;;;;;;;54.03;22.43;;;-3.40;93.80;;;;;;5028059;28;20795;-81
2022/12/18 01:28:34;;;;;;;44.80;18.27;;;-3.30;93.90;;;;;;5013430;28;20281;-80
2022/12/18 01:31:30;;;;;;;47.50;20.30;;;-3.40;93.90;;;;;;5028488;28;20069;-80
2022/12/18 01:33:56;;;;;;;48.17;21.27;;;-3.50;93.90;;;;;;4994776;28;20336;-81
2022/12/18 01:36:28;;;;;;;49.93;22.40;;;-3.50;93.90;;;;;;5028160;28;20276;-82
2022/12/18 01:38:55;;;;;;;49.03;20.47;;;-3.50;94.00;;;;;;5046768;28;20797;-80
2022/12/18 01:41:25;;;;;;;47.17;20.20;;;-3.50;94.00;;;;;;5030978;28;20280;-80
2022/12/18 01:43:57;;;;;;;46.83;19.80;;;-3.50;94.00;;;;;;5031661;28;20294;-80
2022/12/18 01:46:24;;;;;;;50.13;19.97;;;-3.50;94.00;;;;;;5036881;28;20268;-80
2022/12/18 01:48:59;;;;;;;46.43;19.37;;;-3.50;94.00;;;;;;5052078;28;20279;-81
2022/12/18 01:51:27;;;;;;;40.77;18.30;;;-3.60;94.00;;;;;;5035211;28;20687;-80
2022/12/18 01:53:52;;;;;;;45.60;19.43;;;-3.60;94.00;;;;;;5052012;28;20330;-80
2022/12/18 01:56:20;;;;;;;49.40;21.30;;;-3.60;94.00;;;;;;5035249;28;20284;-80
2022/12/18 01:59:08;;;;;;;48.10;20.00;;;-3.60;94.10;;;;;;5036592;28;20404;-81
2022/12/18 02:01:34;;;;;;;50.13;20.60;;;-3.60;94.10;;;;;;5035193;28;20609;-80
2022/12/18 02:04:18;;;;;;;47.00;20.20;;;-3.60;94.10;;;;;;5035272;28;20276;-81
2022/12/18 02:06:44;;;;;;;;;;;-3.70;94.10;;;;;;5052307;28;20280;-81
2022/12/18 02:09:18;;;;;;;40.17;16.70;;;-3.60;94.10;;;;;;5019084;28;20357;-81
2022/12/18 02:11:56;;;;;;;42.60;16.93;;;-3.70;94.00;;;;;;5035207;28;20034;-81
2022/12/18 02:14:53;;;;;;;40.37;17.57;;;-3.70;94.00;;;;;;5036405;28;20338;-81
2022/12/18 02:17:22;;;;;;;42.90;18.17;;;-3.70;94.00;;;;;;5051967;28;20748;-81
2022/12/18 02:20:08;;;;;;;43.70;18.00;;;-3.80;94.00;;;;;;5034986;28;20304;-81
2022/12/18 02:22:45;;;;;;;40.50;17.63;;;-3.80;94.00;;;;;;5051836;28;20370;-81
2022/12/18 02:25:38;;;;;;;45.10;19.40;;;-3.80;94.00;;;;;;5051737;28;20283;-81
2022/12/18 02:28:08;;;;;;;45.07;17.23;;;-3.90;94.00;;;;;;5051308;28;20284;-81
2022/12/18 02:30:36;;;;;;;44.37;18.90;;;-3.90;94.00;;;;;;5034832;28;20276;-81
2022/12/18 02:33:06;;;;;;;41.50;18.00;;;-3.90;94.10;;;;;;5034299;28;20772;-80
2022/12/18 02:35:33;;;;;;;37.90;17.53;;;-3.90;94.10;;;;;;5036146;28;20337;-81
2022/12/18 02:37:59;;;;;;;46.83;17.77;;;-3.90;94.10;;;;;;5036542;28;20288;-81
2022/12/18 02:40:27;;;;;;;43.47;18.20;;;-3.90;94.20;;;;;;5034641;28;20458;-80
2022/12/18 02:42:53;;;;;;;42.93;19.50;;;-3.90;94.20;;;;;;5035087;28;20299;-81
2022/12/18 02:45:18;;;;;;;39.17;17.60;;;-3.90;94.20;;;;;;5051313;28;20383;-80
2022/12/18 02:47:47;;;;;;;47.20;18.53;;;-4.00;94.20;;;;;;5034857;28;20063;-81
2022/12/18 02:50:18;;;;;;;41.33;18.67;;;-3.90;94.30;;;;;;5034443;28;20032;-81
2022/12/18 02:52:55;;;;;;;44.17;18.03;;;-4.00;94.30;;;;;;5034349;28;20371;-81
2022/12/18 02:55:46;;;;;;;40.77;17.97;;;-4.00;94.20;;;;;;5033501;28;20359;-81
2022/12/18 02:58:17;;;;;;;42.50;17.33;;;-4.00;94.30;;;;;;5050786;28;20283;-81
2022/12/18 03:00:49;;;;;;;42.43;17.93;;;-4.00;94.30;;;;;;5050915;28;20272;-81
2022/12/18 03:03:38;;;;;;;39.47;17.70;;;-4.00;94.30;;;;;;5050883;28;20375;-81
2022/12/18 03:06:35;;;;;;;41.60;17.13;;;-4.10;94.30;;;;;;5034345;28;20791;-81
2022/12/18 03:09:09;;;;;;;41.63;16.23;;;-4.10;94.30;;;;;;5034346;28;20284;-81
2022/12/18 03:14:26;;;;;;;37.50;15.33;;;-4.10;94.30;;;;;;5035442;28;20481;-81
2022/12/18 03:16:58;;;;;;;38.17;16.30;;;-4.10;94.30;;;;;;5034244;28;20269;-81
2022/12/18 03:19:27;;;;;;;40.97;16.90;;;-4.10;94.30;;;;;;5034296;28;20391;-80
2022/12/18 03:21:56;;;;;;;40.07;16.43;;;-4.10;94.30;;;;;;5034192;28;20280;-81
2022/12/18 03:24:23;;;;;;;40.73;16.77;;;-4.20;94.60;;;;;;5033726;28;20280;-81
2022/12/18 03:26:53;;;;;;;41.37;17.30;;;-4.20;94.40;;;;;;5035371;28;20272;-81
2022/12/18 03:29:24;;;;;;;40.57;18.40;;;-4.20;94.40;;;;;;5034011;28;20272;-81
2022/12/18 03:31:55;;;;;;;35.10;15.67;;;-4.20;94.40;;;;;;5033823;28;20359;-81
2022/12/18 03:34:29;;;;;;;30.77;14.37;;;-4.20;94.60;;;;;;5034865;28;20344;-81
2022/12/18 03:36:55;;;;;;;;;;;-4.20;94.40;;;;;;5034092;28;20280;-81
2022/12/18 03:39:21;;;;;;;36.97;14.83;;;-4.20;94.40;;;;;;5034698;28;20384;-80
2022/12/18 03:41:59;;;;;;;33.23;14.10;;;-4.20;94.40;;;;;;5035147;28;20108;-80
2022/12/18 03:44:47;;;;;;;36.70;16.50;;;-4.20;94.30;;;;;;5033945;28;20371;-81
2022/12/18 03:47:27;;;;;;;31.47;13.83;;;-4.20;94.40;;;;;;5033258;28;20276;-81
2022/12/18 03:50:22;;;;;;;32.40;15.17;;;-4.20;94.30;;;;;;5033569;28;20288;-80
2022/12/18 03:52:53;;;;;;;;;;;-4.20;94.30;;;;;;5034058;28;20288;-82
2022/12/18 03:55:21;;;;;;;34.70;14.67;;;-4.30;94.40;;;;;;5033362;28;19908;-82
2022/12/18 03:57:49;;;;;;;34.00;14.57;;;-4.30;94.30;;;;;;5033238;28;20284;-82
2022/12/18 04:00:17;;;;;;;31.43;14.50;;;-4.30;94.30;;;;;;5033194;28;20829;-83
2022/12/18 04:02:50;;;;;;;35.03;14.93;;;-4.30;94.30;;;;;;5033124;28;20315;-82
2022/12/18 04:05:18;;;;;;;35.73;14.73;;;-4.30;94.30;;;;;;5049777;28;20635;-82
2022/12/18 04:07:46;;;;;;;33.30;14.37;;;-4.40;94.30;;;;;;5049753;28;20358;-82
2022/12/18 04:10:13;;;;;;;38.97;15.77;;;-4.40;94.40;;;;;;5033511;28;20288;-82
2022/12/18 04:12:39;;;;;;;34.63;16.57;;;-4.40;94.40;;;;;;5032981;28;20869;-82
2022/12/18 04:15:05;;;;;;;37.00;16.37;;;-4.30;94.60;;;;;;5034538;28;20276;-82
2022/12/18 04:17:31;;;;;;;35.73;15.93;;;-4.40;94.50;;;;;;5032776;28;20029;-82
2022/12/18 04:19:57;;;;;;;34.83;15.63;;;-4.30;94.50;;;;;;5032635;28;20661;-82
2022/12/18 04:22:22;;;;;;;37.77;15.07;;;-4.40;94.50;;;;;;5032785;28;20042;-82
2022/12/18 04:24:48;;;;;;;39.00;14.83;;;-4.30;94.60;;;;;;5032620;28;20033;-82
2022/12/18 04:27:14;;;;;;;35.93;15.13;;;-4.30;94.60;;;;;;5032846;28;20032;-82
2022/12/18 04:29:39;;;;;;;34.13;15.33;;;-4.30;94.80;;;;;;5032642;28;20477;-81
2022/12/18 04:32:05;;;;;;;35.00;15.60;;;-4.40;94.60;;;;;;5033916;28;20033;-80
2022/12/18 04:34:31;;;;;;;31.13;14.43;;;-4.40;94.60;;;;;;5032743;28;20026;-81
2022/12/18 04:36:56;;;;;;;29.83;14.13;;;-4.40;94.60;;;;;;5049391;28;20504;-81
2022/12/18 04:39:22;;;;;;;29.97;13.87;;;-4.40;94.60;;;;;;5032434;28;20045;-81
2022/12/18 04:41:48;;;;;;;29.40;13.77;;;-4.40;94.60;;;;;;5032478;28;20022;-81
2022/12/18 04:44:13;;;;;;;27.53;12.90;;;-4.40;94.70;;;;;;5026063;28;20038;-81
2022/12/18 04:46:39;;;;;;;31.80;14.20;;;-4.40;94.90;;;;;;5028049;28;20095;-81
2022/12/18 04:49:05;;;;;;;27.23;13.07;;;-4.40;94.60;;;;;;5028125;28;20030;-81
2022/12/18 04:51:30;;;;;;;30.80;13.53;;;-4.30;94.70;;;;;;4996602;28;20383;-81
2022/12/18 04:53:56;;;;;;;29.27;12.50;;;-4.40;94.70;;;;;;5013622;28;20501;-81
2022/12/18 04:56:22;;;;;;;26.30;11.87;;;-4.40;94.70;;;;;;5028886;28;20026;-81
2022/12/18 04:58:47;;;;;;;34.47;13.43;;;-4.40;94.70;;;;;;5028224;28;20030;-81
2022/12/18 05:01:16;;;;;;;30.67;12.30;;;-4.40;94.70;;;;;;5012571;28;20856;-82
2022/12/18 05:03:42;;;;;;;31.57;11.70;;;-4.40;94.70;;;;;;5028658;28;20030;-82
2022/12/18 05:06:08;;;;;;;24.13;11.23;;;-4.40;94.70;;;;;;5028952;28;20283;-82
2022/12/18 05:08:34;;;;;;;25.00;11.50;;;-4.40;94.70;;;;;;5028963;28;20293;-82
2022/12/18 05:11:08;;;;;;;27.47;12.07;;;-4.50;94.70;;;;;;5011976;28;20022;-81
2022/12/18 05:13:34;;;;;;;23.93;10.87;;;-4.50;94.70;;;;;;5028949;28;20018;-82
2022/12/18 05:16:00;;;;;;;22.50;11.30;;;-4.50;94.70;;;;;;5028886;28;20287;-81
2022/12/18 05:18:26;;;;;;;30.80;11.77;;;-4.50;94.70;;;;;;5028554;28;20265;-81
2022/12/18 05:20:53;;;;;;;32.70;13.50;;;-4.50;94.80;;;;;;5011974;28;20302;-81
2022/12/18 05:23:20;;;;;;;25.60;11.63;;;-4.50;94.80;;;;;;5029022;28;20030;-81
2022/12/18 05:25:54;;;;;;;34.33;12.53;;;-4.50;94.80;;;;;;5028618;28;20335;-82
2022/12/18 05:28:20;;;;;;;24.20;11.48;;;-4.50;94.80;;;;;;5028587;28;20792;-82
2022/12/18 05:30:54;;;;;;;24.97;11.77;;;-4.50;94.80;;;;;;5028302;28;20037;-82
2022/12/18 05:33:22;;;;;;;26.63;10.65;;;-4.50;94.90;;;;;;5028253;28;20698;-82
2022/12/18 05:35:52;;;;;;;24.97;11.40;;;-4.50;94.90;;;;;;5013541;28;20034;-82
2022/12/18 05:38:19;;;;;;;28.80;12.37;;;-4.50;94.90;;;;;;5027932;28;20301;-82
2022/12/18 05:40:45;;;;;;;23.57;10.90;;;-4.50;94.90;;;;;;5012403;28;20335;-82
2022/12/18 05:43:11;;;;;;;24.57;11.13;;;-4.60;94.90;;;;;;5028769;28;20276;-82
2022/12/18 05:45:38;;;;;;;23.47;11.23;;;-4.50;95.00;;;;;;5028429;28;20459;-82
2022/12/18 05:48:04;;;;;;;26.40;11.97;;;-4.50;95.00;;;;;;5028212;28;20030;-83
2022/12/18 05:50:29;;;;;;;26.37;11.63;;;-4.50;95.00;;;;;;5011393;28;20938;-82
2022/12/18 05:52:55;;;;;;;24.33;11.50;;;-4.50;95.00;;;;;;4995803;28;20034;-82
2022/12/18 05:55:21;;;;;;;28.03;12.17;;;-4.50;95.00;;;;;;5013243;28;20467;-82
2022/12/18 05:57:46;;;;;;;24.27;11.67;;;-4.50;95.00;;;;;;5028525;28;20080;-82
2022/12/18 06:00:12;;;;;;;25.40;12.30;;;-4.50;95.00;;;;;;5027993;28;20084;-82
2022/12/18 06:02:38;;;;;;;27.27;11.80;;;-4.50;95.00;;;;;;5027777;28;20478;-82
2022/12/18 06:05:04;;;;;;;23.23;11.00;;;-4.50;95.00;;;;;;4995937;28;20383;-83
2022/12/18 06:07:30;;;;;;;24.30;11.57;;;-4.50;95.00;;;;;;5028341;28;20061;-82
2022/12/18 06:09:55;;;;;;;28.10;11.90;;;-4.50;95.00;;;;;;5028355;28;20772;-82
2022/12/18 06:12:21;;;;;;;22.40;10.70;;;-4.50;95.00;;;;;;4995771;28;20030;-81
2022/12/18 06:14:46;;;;;;;22.47;10.53;;;-4.50;95.00;;;;;;5028096;28;20030;-80
2022/12/18 06:17:12;;;;;;;26.67;11.93;;;-4.50;95.10;;;;;;5027853;28;20033;-82
2022/12/18 06:19:38;;;;;;;25.53;10.87;;;-4.60;95.10;;;;;;5012950;28;20042;-81
2022/12/18 06:22:03;;;;;;;23.13;11.57;;;-4.50;95.10;;;;;;5028494;28;20034;-81
2022/12/18 06:24:29;;;;;;;23.07;10.73;;;-4.50;95.20;;;;;;5028519;28;20022;-82
2022/12/18 06:26:55;;;;;;;25.97;11.33;;;-4.50;95.20;;;;;;5028449;28;20554;-81
2022/12/18 06:29:21;;;;;;;24.47;11.97;;;-4.50;95.10;;;;;;5028528;28;20364;-81
2022/12/18 06:31:47;;;;;;;22.97;10.63;;;-4.50;95.10;;;;;;5014705;28;20029;-81
2022/12/18 06:34:12;;;;;;;22.70;11.23;;;-4.50;95.20;;;;;;5031325;28;20061;-81
2022/12/18 06:36:38;;;;;;;24.67;11.43;;;-4.50;95.10;;;;;;5014979;28;20442;-82
2022/12/18 06:39:03;;;;;;;24.87;10.97;;;-4.50;95.20;;;;;;5031568;28;20080;-82
2022/12/18 06:41:29;;;;;;;23.57;10.67;;;-4.40;95.20;;;;;;5031805;28;20026;-82
2022/12/18 06:43:55;;;;;;;26.27;12.07;;;-4.40;95.20;;;;;;5031262;28;20489;-81
2022/12/18 06:46:20;;;;;;;23.47;10.90;;;-4.40;95.20;;;;;;5015323;28;20458;-82
2022/12/18 06:48:49;;;;;;;23.70;10.93;;;-4.40;95.20;;;;;;5033502;28;20394;-82
2022/12/18 06:51:20;;;;;;;22.97;10.70;;;-4.50;95.20;;;;;;5018044;28;20070;-81
2022/12/18 06:53:45;;;;;;;22.57;11.23;;;-4.40;95.20;;;;;;5031662;28;20292;-82
2022/12/18 06:56:11;;;;;;;25.87;11.60;;;-4.40;95.20;;;;;;5028857;28;20268;-83
2022/12/18 06:58:38;;;;;;;24.67;10.63;;;-4.40;95.30;;;;;;5030962;28;20065;-81
2022/12/18 07:01:06;;;;;;;21.30;10.83;;;-4.40;95.30;;;;;;5030398;28;20072;-83
2022/12/18 07:03:31;;;;;;;21.00;10.33;;;-4.40;95.30;;;;;;5028526;28;20983;-82
2022/12/18 07:05:57;;;;;;;19.90;10.00;;;-4.40;95.30;;;;;;5031189;28;20288;-81
2022/12/18 07:08:23;;;;;;;26.30;11.60;;;-4.40;95.30;;;;;;4998496;28;20040;-82
2022/12/18 07:10:51;;;;;;;21.50;10.53;;;-4.40;95.30;;;;;;5032914;28;20056;-81
2022/12/18 07:13:17;;;;;;;24.33;11.80;;;-4.40;95.30;;;;;;5020323;28;20096;-81
2022/12/18 07:15:43;;;;;;;25.00;11.03;;;-4.40;95.30;;;;;;5029375;28;20289;-81
2022/12/18 07:18:09;;;;;;;27.20;12.10;;;-4.30;95.30;;;;;;5044418;28;20036;-82
2022/12/18 07:20:34;;;;;;;23.43;10.70;;;-4.30;95.30;;;;;;5000761;28;20382;-81
2022/12/18 07:23:03;;;;;;;21.63;10.77;;;-4.30;95.30;;;;;;5033604;28;20056;-82
2022/12/18 07:25:29;;;;;;;23.37;11.10;;;-4.40;95.30;;;;;;5033871;28;20505;-82
2022/12/18 07:27:54;;;;;;;21.97;10.20;;;-4.40;95.30;;;;;;5049839;28;20280;-82
2022/12/18 07:30:20;;;;;;;20.83;10.70;;;-4.40;95.30;;;;;;5033707;28;20026;-82
2022/12/18 07:32:47;;;;;;;23.77;10.47;;;-4.30;95.40;;;;;;5033141;28;20053;-83
2022/12/18 07:35:12;;;;;;;27.63;11.37;;;-4.30;95.40;;;;;;5033444;28;20079;-82
2022/12/18 07:37:38;;;;;;;22.93;11.10;;;-4.30;95.40;;;;;;5033875;28;20787;-82
2022/12/18 07:40:04;;;;;;;23.07;11.00;;;-4.30;95.40;;;;;;5049868;28;20065;-82
2022/12/18 07:42:30;;;;;;;24.97;10.70;;;-4.30;95.40;;;;;;5033542;28;20029;-82
2022/12/18 07:44:56;;;;;;;25.47;10.67;;;-4.40;95.40;;;;;;5030807;28;21819;-83
2022/12/18 07:47:21;;;;;;;24.20;11.13;;;-4.30;95.50;;;;;;5022486;28;20124;-82
2022/12/18 07:49:47;;;;;;;27.47;11.23;;;-4.30;95.50;;;;;;5033211;28;20025;-83
2022/12/18 07:52:13;;;;;;;24.60;11.30;;;-4.30;95.50;;;;;;5003499;28;20040;-82
2022/12/18 07:54:40;;;;;;;23.07;10.60;;;-4.20;95.50;;;;;;5053417;28;20029;-82
2022/12/18 07:57:05;;;;;;;23.03;10.63;;;-4.20;95.60;;;;;;5038562;28;20032;-82
2022/12/18 07:59:31;;;;;;;23.90;10.13;;;-4.20;95.60;;;;;;5029939;28;20312;-82
2022/12/18 08:01:57;;;;;;;26.13;11.07;;;-4.10;95.70;;;;;;5015608;28;20017;-83
2022/12/18 08:04:23;;;;;;;17.77;9.00;;;-4.10;95.80;;;;;;5033837;28;20029;-82
2022/12/18 08:06:48;;;;;;;22.97;11.27;;;-4.10;95.90;;;;;;5016126;28;20025;-82
2022/12/18 08:09:14;;;;;;;20.03;9.83;;;-4.00;95.90;;;;;;5033849;28;20022;-82
2022/12/18 08:11:39;;;;;;;25.07;10.60;;;-4.00;96.00;;;;;;5032583;28;20552;-82
2022/12/18 08:14:05;;;;;;;21.90;10.50;;;-3.90;96.00;;;;;;5036305;28;20029;-83
2022/12/18 08:16:31;;;;;;;21.67;10.37;;;-3.90;96.10;;;;;;5015985;28;20371;-82
2022/12/18 08:18:57;;;;;;;19.60;8.83;;;-3.80;96.10;;;;;;5032179;28;20033;-82
2022/12/18 08:21:30;;;;;;;19.03;9.60;;;-3.70;96.20;;;;;;5033270;28;20029;-81
2022/12/18 08:23:58;;;;;;;20.83;9.23;;;-3.70;96.30;;;;;;5016343;28;20284;-83
2022/12/18 08:26:26;;;;;;;17.67;9.40;;;-3.60;96.30;;;;;;5033053;28;20311;-82
2022/12/18 08:28:54;;;;;;;21.00;9.77;;;-3.60;96.40;;;;;;5033216;28;20276;-82
2022/12/18 08:31:19;;;;;;;19.30;9.37;;;-3.50;96.40;;;;;;5032572;28;20772;-83
2022/12/18 08:33:47;;;;;;;19.47;8.77;;;-3.40;96.50;;;;;;5015654;28;20358;-83
2022/12/18 08:36:13;;;;;;;19.70;9.60;;;-3.30;96.60;;;;;;5015869;28;20029;-82
2022/12/18 08:38:39;;;;;;;20.20;10.00;;;-3.20;96.70;;;;;;5016166;28;20287;-82
2022/12/18 08:41:07;;;;;;;20.40;9.57;;;-3.20;96.70;;;;;;5032569;28;20025;-82
2022/12/18 08:46:17;;;;;;;;;;;-3.00;96.80;;;;;;5045291;28;20847;-82
2022/12/18 08:48:43;;;;;;;18.10;8.07;;;-2.90;96.80;;;;;;5034176;28;19905;-83
2022/12/18 08:51:11;;;;;;;19.70;8.17;;;-2.80;96.80;;;;;;5033819;28;20318;-82
2022/12/18 08:53:38;;;;;;;15.10;7.40;;;-2.80;96.80;;;;;;5030369;28;20337;-82
2022/12/18 08:56:04;;;;;;;19.17;8.70;;;-2.70;96.80;;;;;;5031922;28;20283;-82
2022/12/18 08:58:30;;;;;;;16.57;8.63;;;-2.60;96.80;;;;;;5032362;28;20288;-82
2022/12/18 09:01:07;;;;;;;18.17;8.40;;;-2.40;96.80;;;;;;5014928;28;20333;-82
2022/12/18 09:03:33;;;;;;;17.83;7.80;;;-2.40;96.80;;;;;;5031619;28;20036;-83
2022/12/18 09:05:59;;;;;;;16.87;7.83;;;-2.30;96.90;;;;;;5032443;28;20280;-83
2022/12/18 09:08:25;;;;;;;15.17;7.03;;;-2.20;96.90;;;;;;5032533;28;20041;-82
2022/12/18 09:10:51;;;;;;;16.90;8.17;;;-2.20;96.90;;;;;;5015864;28;20346;-83
2022/12/18 09:13:17;;;;;;;16.50;8.00;;;-2.00;96.90;;;;;;5032541;28;20306;-83
2022/12/18 09:15:47;;;;;;;18.27;8.87;;;-2.00;96.90;;;;;;5032179;28;20284;-83
2022/12/18 09:18:14;;;;;;;17.00;8.13;;;-1.80;97.00;;;;;;5032242;28;20276;-83
2022/12/18 09:20:41;;;;;;;16.50;8.63;;;-1.70;97.00;;;;;;5032858;28;20300;-83
2022/12/18 09:23:07;;;;;;;17.43;7.80;;;-1.60;97.00;;;;;;5011917;28;20033;-83
2022/12/18 09:25:35;;;;;;;17.03;8.47;;;-1.50;97.00;;;;;;5032359;28;20342;-83
2022/12/18 09:28:05;;;;;;;15.87;7.87;;;-1.40;96.80;;;;;;5015627;28;20287;-83
2022/12/18 09:30:33;;;;;;;15.73;7.90;;;-1.30;96.80;;;;;;5032922;28;20276;-83
2022/12/18 09:32:59;;;;;;;20.03;8.87;;;-1.20;96.80;;;;;;5015423;28;20088;-85
2022/12/18 09:35:24;;;;;;;16.17;8.43;;;-1.00;96.40;;;;;;5031764;28;20026;-83
2022/12/18 09:37:50;;;;;;;20.93;8.27;;;-1.00;96.40;;;;;;5031588;28;20075;-83
2022/12/18 09:40:21;;;;;;;18.00;7.57;;;-0.90;96.30;;;;;;5015281;28;20056;-83
2022/12/18 09:42:53;;;;;;;19.53;9.63;;;-0.80;96.10;;;;;;5033348;28;20087;-83
2022/12/18 09:45:19;;;;;;;17.43;8.50;;;-0.70;95.80;;;;;;5032878;28;20052;-83
2022/12/18 09:47:48;;;;;;;15.77;6.83;;;-0.60;95.70;;;;;;5014874;28;20030;-83
2022/12/18 09:50:33;;;;;;;15.70;7.30;;;-0.50;95.70;;;;;;5047965;28;20021;-83
2022/12/18 09:53:06;;;;;;;15.70;7.80;;;-0.40;95.70;;;;;;5031948;28;20018;-83
2022/12/18 09:55:38;;;;;;;16.03;8.00;;;-0.40;95.50;;;;;;5031814;28;20418;-83
2022/12/18 09:58:19;;;;;;;16.67;7.30;;;-0.20;95.40;;;;;;5031852;28;20497;-83
2022/12/18 10:00:44;;;;;;;18.00;7.40;;;-0.30;95.00;;;;;;5029730;28;20041;-83
2022/12/18 10:03:15;;;;;;;15.83;7.70;;;-0.20;94.60;;;;;;5030302;28;20099;-83
2022/12/18 10:05:53;;;;;;;18.13;8.23;;;-0.20;94.50;;;;;;5033516;28;20029;-83
2022/12/18 10:08:34;;;;;;;19.43;8.70;;;-0.10;94.20;;;;;;5036341;28;20029;-83
2022/12/18 10:11:32;;;;;;;18.03;9.33;;;-0.10;93.80;;;;;;5051621;28;20021;-84
2022/12/18 10:14:26;;;;;;;15.57;8.53;;;-0.10;93.90;;;;;;5000847;28;20394;-83
2022/12/18 10:17:15;;;;;;;17.07;8.23;;;0.00;93.90;;;;;;5036423;28;20034;-83
2022/12/18 10:20:16;;;;;;;16.97;7.97;;;0.00;93.40;;;;;;5051977;28;20040;-83
2022/12/18 10:22:41;;;;;;;15.63;7.73;;;0.10;93.70;;;;;;5019913;28;20397;-83
2022/12/18 10:25:29;;;;;;;15.23;7.87;;;0.10;93.70;;;;;;5051455;28;20025;-83
2022/12/18 10:28:00;;;;;;;16.23;7.40;;;0.10;93.80;;;;;;5051610;28;20074;-84
2022/12/18 10:30:26;;;;;;;15.73;7.83;;;0.30;93.70;;;;;;5036366;28;20104;-84
2022/12/18 10:32:52;;;;;;;17.17;8.37;;;0.40;93.50;;;;;;5050572;28;20060;-82
2022/12/18 10:35:22;;;;;;;15.37;7.57;;;0.40;93.50;;;;;;5035241;28;20549;-82
2022/12/18 10:38:27;;;;;;;14.17;7.03;;;0.50;93.40;;;;;;5035965;28;20083;-83
2022/12/18 10:40:55;;;;;;;;;;;0.50;93.20;;;;;;5013350;28;20107;-82
2022/12/18 10:43:35;;;;;;;14.90;7.03;;;0.50;92.90;;;;;;5034079;28;19909;-81
2022/12/18 10:46:07;;;;;;;17.30;7.50;;;0.50;92.50;;;;;;5034413;28;20025;-81
2022/12/18 10:48:36;;;;;;;15.03;7.07;;;0.60;92.60;;;;;;5051376;28;20124;-81
2022/12/18 10:51:03;;;;;;;16.60;8.17;;;0.60;92.60;;;;;;5035424;28;20041;-82
2022/12/18 10:53:31;;;;;;;17.53;8.30;;;0.60;92.10;;;;;;5017821;28;20116;-82
2022/12/18 10:55:58;;;;;;;19.70;9.40;;;0.60;91.90;;;;;;5033621;28;20037;-80
2022/12/18 10:58:35;;;;;;;19.23;10.00;;;0.60;91.90;;;;;;5034431;28;20057;-81
2022/12/18 11:01:15;;;;;;;19.13;8.97;;;0.70;91.40;;;;;;5050759;28;20486;-81
2022/12/18 11:04:01;;;;;;;16.73;8.43;;;0.70;91.40;;;;;;5035422;28;20025;-80
2022/12/18 11:06:27;;;;;;;16.63;8.77;;;0.70;91.40;;;;;;5035394;28;20021;-81
2022/12/18 11:09:00;;;;;;;18.53;9.00;;;0.70;91.30;;;;;;5034306;28;20092;-79
2022/12/18 11:11:26;;;;;;;16.33;8.70;;;0.70;91.30;;;;;;5032436;28;20032;-81
2022/12/18 11:14:05;;;;;;;20.53;9.03;;;0.70;91.30;;;;;;5033629;28;20030;-81
2022/12/18 11:16:44;;;;;;;17.00;8.73;;;0.80;90.90;;;;;;5031686;28;20108;-81
2022/12/18 11:19:31;;;;;;;17.00;9.27;;;0.80;91.10;;;;;;5027563;28;20038;-81
2022/12/18 11:21:57;;;;;;;18.30;8.33;;;0.80;91.20;;;;;;5031806;28;20033;-81
2022/12/18 11:24:36;;;;;;;20.90;9.03;;;0.80;91.10;;;;;;5034172;28;20057;-81
2022/12/18 11:27:04;;;;;;;20.60;9.10;;;0.90;91.10;;;;;;5050651;28;20030;-81
2022/12/18 11:29:34;;;;;;;16.73;8.90;;;0.90;91.00;;;;;;5033688;28;20053;-81
2022/12/18 11:32:24;;;;;;;19.83;9.23;;;0.90;91.00;;;;;;5033681;28;20033;-81
2022/12/18 11:34:55;;;;;;;17.73;8.43;;;0.90;90.80;;;;;;5034140;28;20393;-82
2022/12/18 11:37:21;;;;;;;17.87;8.47;;;1.00;90.80;;;;;;5033529;28;20022;-82
2022/12/18 11:39:58;;;;;;;15.40;8.20;;;1.10;91.00;;;;;;5017331;28;20493;-81
2022/12/18 11:42:42;;;;;;;15.90;7.87;;;1.10;91.00;;;;;;5035232;28;20025;-81
2022/12/18 11:45:10;;;;;;;13.77;6.40;;;1.20;90.90;;;;;;5033672;28;20048;-81
2022/12/18 11:47:42;;;;;;;18.20;9.07;;;1.20;90.80;;;;;;5050191;28;20068;-81
2022/12/18 11:50:17;;;;;;;19.20;9.53;;;1.20;90.40;;;;;;5050486;28;20072;-82
2022/12/18 11:52:43;;;;;;;17.30;8.13;;;1.30;90.50;;;;;;5034949;28;20021;-82
2022/12/18 11:55:15;;;;;;;20.43;8.77;;;1.30;90.40;;;;;;5000370;28;20032;-83
2022/12/18 11:58:09;;;;;;;18.47;9.53;;;1.30;90.30;;;;;;5033502;28;20029;-82
2022/12/18 12:00:42;;;;;;;17.77;9.35;;;1.40;90.00;;;;;;5033231;28;20401;-83
2022/12/18 12:03:42;;;;;;;21.33;9.10;;;1.50;89.40;;;;;;5034511;28;20025;-82
2022/12/18 12:06:38;;;;;;;17.70;9.13;;;1.40;89.30;;;;;;5032827;28;20516;-82
2022/12/18 12:09:18;;;;;;;19.93;9.43;;;1.50;89.40;;;;;;5022684;28;20478;-82
2022/12/18 12:11:50;;;;;;;17.67;8.60;;;1.50;89.10;;;;;;5030012;28;20369;-82
2022/12/18 12:14:24;;;;;;;19.33;9.20;;;1.50;88.80;;;;;;5030182;28;20033;-82
2022/12/18 12:16:57;;;;;;;;;;;1.60;88.70;;;;;;5014065;28;20529;-82
2022/12/18 12:19:44;;;;;;;18.97;8.63;;;1.60;87.90;;;;;;5013426;28;19917;-83
2022/12/18 12:22:42;;;;;;;18.77;9.53;;;1.60;88.20;;;;;;5030186;28;20124;-83
2022/12/18 12:25:26;;;;;;;16.73;8.80;;;1.60;88.00;;;;;;5029738;28;20014;-82
2022/12/18 12:28:15;;;;;;;20.10;8.33;;;1.60;87.80;;;;;;5013974;28;20153;-83
2022/12/18 12:30:51;;;;;;;18.17;8.33;;;1.60;87.70;;;;;;5014430;28;20022;-83
2022/12/18 12:33:45;;;;;;;18.33;8.47;;;1.60;87.80;;;;;;5014023;28;20054;-82
2022/12/18 12:36:30;;;;;;;17.73;9.02;;;1.60;87.90;;;;;;5029305;28;20026;-83
2022/12/18 12:38:57;;;;;;;;;;;1.60;87.90;;;;;;5029307;28;20046;-82
2022/12/18 12:44:22;;;;;;;17.17;8.50;;;1.60;87.40;;;;;;5014654;28;20401;-82
2022/12/18 12:46:49;;;;;;;19.53;8.63;;;1.70;87.70;;;;;;5012826;28;20044;-82
2022/12/18 12:49:18;;;;;;;16.87;8.90;;;1.70;87.60;;;;;;4996844;28;20040;-83
2022/12/18 12:51:50;;;;;;;17.97;9.27;;;1.70;87.40;;;;;;5029183;28;20058;-82
2022/12/18 12:54:20;;;;;;;20.17;10.23;;;1.70;87.30;;;;;;5014575;28;20065;-82
2022/12/18 12:56:57;;;;;;;17.30;9.10;;;1.70;86.70;;;;;;5012727;28;20442;-82
2022/12/18 12:59:47;;;;;;;18.37;9.17;;;1.70;87.10;;;;;;5029761;28;20052;-83
2022/12/18 13:02:42;;;;;;;15.40;8.03;;;1.70;87.00;;;;;;5029230;28;20025;-82